Terminal Aerodrome Forecast
Issued by NWS Cleveland, OH

Home | Current Version | Previous Version | Text Only | Print | Product List | Glossary Off
Versions: 1 2 3 4 5 6 7 8 9 10 11 12 13 14 15 16 17 18

000
FTUS41 KCLE 192300
TAFERI
TAF
KERI 192330Z 2000/2024 16012KT P6SM SCT025 BKN045
      TEMPO 2000/2003 2SM -SHRA OVC025
     FM200300 16008KT P6SM VCSH OVC025
     FM200900 19006KT 5SM BR BKN025
     FM201500 19008KT P6SM BKN045
     FM202100 30008KT P6SM SCT050=

USA.gov is the U.S. government's official web portal to all federal, state and local government web resources and services.